Terminal Aerodrome Forecast
Issued by NWS

Home | Current Version | Previous Version | Text Only | Print | Product List | Glossary On
Versions: 1 2 3 4 5 6 7 8 9 10 11 12 13 14 15 16 17 18 19 20 21 22 23 24 25 26 27 28 29 30 31 32 33 34 35 36 37 38 39 40
000
FTUS45 KGJT 231146
TAFTEX
TAF
KTEX 231146Z 2312/2412 18013G25KT P6SM VCSH OVC090
     FM231400 18015G36KT P6SM -SHRASN OVC060
     FM231800 18015G32KT P6SM -SHRASN VCTS OVC060CB
     FM232000 23014G29KT 2SM -SHSNRA VCTS OVC030CB
      TEMPO 2320/2324 VRB15G35KT 5SM -TSRA OVC020CB
     FM240100 28010G20KT 1 1/2SM -SHSN OVC015
     FM241000 32012G26KT P6SM OVC020=

USA.gov is the U.S. government's official web portal to all federal, state and local government web resources and services.